Cincinnati, Ohio
Traffic Map
Current Weather Conditions
Cincinnati, Ohio
Clear
Clear
72°
Feels Like: 72°
Wind Chill: 72° Ceiling: Unl
Heat Index: 72° Visibility: 10mi
Dew Point: 55° Wind: 13mph
Humidity: 55% Direction: 190° (S)
Pressure: 30.18in Gusts: 0mph
Raw Report DataKLUK 221653Z 19011KT 10SM CLR 22/13 A3018 RMK AO2 SLP219 T02220128
Traffic Incident Summary
Active as of:
Severity:
Category:
InformationThere was an issue retrieving the traffic information for this location. Please try a different location or try again shortly.
Advertisements